sensor_id;sensor_type;location;lat;lon;timestamp;temperature;humidity
44833;DHT22;30569;51.252;9.830;2024-02-14T00:01:34;6.80;99.90
44833;DHT22;30569;51.252;9.830;2024-02-14T00:04:03;6.80;99.90
44833;DHT22;30569;51.252;9.830;2024-02-14T00:06:29;6.80;99.90
44833;DHT22;30569;51.252;9.830;2024-02-14T00:08:54;6.70;99.90
44833;DHT22;30569;51.252;9.830;2024-02-14T00:11:20;6.90;99.90
44833;DHT22;30569;51.252;9.830;2024-02-14T00:13:45;6.90;99.90
44833;DHT22;30569;51.252;9.830;2024-02-14T00:16:11;7.00;99.90
44833;DHT22;30569;51.252;9.830;2024-02-14T00:18:37;7.00;99.90
44833;DHT22;30569;51.252;9.830;2024-02-14T00:21:02;6.90;99.90
44833;DHT22;30569;51.252;9.830;2024-02-14T00:23:28;7.00;99.90
44833;DHT22;30569;51.252;9.830;2024-02-14T00:25:54;7.00;99.90
44833;DHT22;30569;51.252;9.830;2024-02-14T00:28:19;7.00;99.90
44833;DHT22;30569;51.252;9.830;2024-02-14T00:30:45;7.00;99.90
44833;DHT22;30569;51.252;9.830;2024-02-14T00:33:10;6.90;99.90
44833;DHT22;30569;51.252;9.830;2024-02-14T00:35:36;7.00;99.90
44833;DHT22;30569;51.252;9.830;2024-02-14T00:38:02;6.90;99.90
44833;DHT22;30569;51.252;9.830;2024-02-14T00:40:27;6.90;99.90
44833;DHT22;30569;51.252;9.830;2024-02-14T00:42:53;6.90;99.90
44833;DHT22;30569;51.252;9.830;2024-02-14T00:45:18;7.00;99.90
44833;DHT22;30569;51.252;9.830;2024-02-14T00:47:44;7.00;99.90
44833;DHT22;30569;51.252;9.830;2024-02-14T00:50:09;7.00;99.90
44833;DHT22;30569;51.252;9.830;2024-02-14T00:52:35;7.00;99.90
44833;DHT22;30569;51.252;9.830;2024-02-14T00:55:01;6.90;99.90
44833;DHT22;30569;51.252;9.830;2024-02-14T00:57:29;6.90;99.90
44833;DHT22;30569;51.252;9.830;2024-02-14T00:59:54;7.10;99.90
44833;DHT22;30569;51.252;9.830;2024-02-14T01:02:22;7.10;99.90
44833;DHT22;30569;51.252;9.830;2024-02-14T01:04:47;7.10;99.90
44833;DHT22;30569;51.252;9.830;2024-02-14T01:07:13;7.00;99.90
44833;DHT22;30569;51.252;9.830;2024-02-14T01:09:38;7.00;99.90
44833;DHT22;30569;51.252;9.830;2024-02-14T01:12:04;7.00;99.90
44833;DHT22;30569;51.252;9.830;2024-02-14T01:14:31;7.10;99.90
44833;DHT22;30569;51.252;9.830;2024-02-14T01:16:56;6.60;99.90
44833;DHT22;30569;51.252;9.830;2024-02-14T01:19:22;6.40;99.90
44833;DHT22;30569;51.252;9.830;2024-02-14T01:21:49;6.50;99.90
44833;DHT22;30569;51.252;9.830;2024-02-14T01:24:15;6.60;99.90
44833;DHT22;30569;51.252;9.830;2024-02-14T01:26:41;7.20;99.90
44833;DHT22;30569;51.252;9.830;2024-02-14T01:29:07;6.10;99.90
44833;DHT22;30569;51.252;9.830;2024-02-14T01:31:33;5.90;99.90
44833;DHT22;30569;51.252;9.830;2024-02-14T01:33:59;6.20;99.90
44833;DHT22;30569;51.252;9.830;2024-02-14T01:36:28;5.90;99.90
44833;DHT22;30569;51.252;9.830;2024-02-14T01:38:53;5.90;99.90
44833;DHT22;30569;51.252;9.830;2024-02-14T01:41:19;5.70;99.90
44833;DHT22;30569;51.252;9.830;2024-02-14T01:43:47;5.70;99.90
44833;DHT22;30569;51.252;9.830;2024-02-14T01:46:12;5.80;99.90
44833;DHT22;30569;51.252;9.830;2024-02-14T01:48:39;5.90;99.90
44833;DHT22;30569;51.252;9.830;2024-02-14T01:51:06;5.80;99.90
44833;DHT22;30569;51.252;9.830;2024-02-14T01:53:34;5.80;99.90
44833;DHT22;30569;51.252;9.830;2024-02-14T01:56:01;5.50;99.90
44833;DHT22;30569;51.252;9.830;2024-02-14T01:58:28;5.80;99.90
44833;DHT22;30569;51.252;9.830;2024-02-14T02:00:54;6.00;99.90
44833;DHT22;30569;51.252;9.830;2024-02-14T02:03:23;6.00;99.90
44833;DHT22;30569;51.252;9.830;2024-02-14T02:05:49;5.90;99.90
44833;DHT22;30569;51.252;9.830;2024-02-14T02:08:14;5.90;99.90
44833;DHT22;30569;51.252;9.830;2024-02-14T02:10:40;5.90;99.90
44833;DHT22;30569;51.252;9.830;2024-02-14T02:13:06;6.10;99.90
44833;DHT22;30569;51.252;9.830;2024-02-14T02:15:34;6.30;99.90
44833;DHT22;30569;51.252;9.830;2024-02-14T02:18:00;6.50;99.90
44833;DHT22;30569;51.252;9.830;2024-02-14T02:20:26;6.90;99.90
44833;DHT22;30569;51.252;9.830;2024-02-14T02:22:53;7.00;99.90
44833;DHT22;30569;51.252;9.830;2024-02-14T02:25:18;6.90;99.90
44833;DHT22;30569;51.252;9.830;2024-02-14T02:27:48;7.00;99.90
44833;DHT22;30569;51.252;9.830;2024-02-14T02:30:14;7.10;99.90
44833;DHT22;30569;51.252;9.830;2024-02-14T02:32:40;7.20;99.90
44833;DHT22;30569;51.252;9.830;2024-02-14T02:35:06;7.30;99.90
44833;DHT22;30569;51.252;9.830;2024-02-14T02:37:32;7.20;99.90
44833;DHT22;30569;51.252;9.830;2024-02-14T02:39:58;7.30;99.90
44833;DHT22;30569;51.252;9.830;2024-02-14T02:42:24;7.30;99.90
44833;DHT22;30569;51.252;9.830;2024-02-14T02:44:50;7.40;99.90
44833;DHT22;30569;51.252;9.830;2024-02-14T02:47:16;7.40;99.90
44833;DHT22;30569;51.252;9.830;2024-02-14T02:49:43;7.60;99.90
44833;DHT22;30569;51.252;9.830;2024-02-14T02:52:10;7.60;99.90
44833;DHT22;30569;51.252;9.830;2024-02-14T02:54:36;7.40;99.90
44833;DHT22;30569;51.252;9.830;2024-02-14T02:57:02;7.40;99.90
44833;DHT22;30569;51.252;9.830;2024-02-14T02:59:28;7.50;99.90
44833;DHT22;30569;51.252;9.830;2024-02-14T03:01:55;7.50;99.90
44833;DHT22;30569;51.252;9.830;2024-02-14T03:04:20;7.50;99.90
44833;DHT22;30569;51.252;9.830;2024-02-14T03:06:46;7.60;99.90
44833;DHT22;30569;51.252;9.830;2024-02-14T03:09:12;7.20;99.90
44833;DHT22;30569;51.252;9.830;2024-02-14T03:11:39;7.50;99.90
44833;DHT22;30569;51.252;9.830;2024-02-14T03:14:05;7.60;99.90
44833;DHT22;30569;51.252;9.830;2024-02-14T03:16:31;7.50;99.90
44833;DHT22;30569;51.252;9.830;2024-02-14T03:18:57;7.50;99.90
44833;DHT22;30569;51.252;9.830;2024-02-14T03:21:24;7.70;99.90
44833;DHT22;30569;51.252;9.830;2024-02-14T03:23:49;7.40;99.90
44833;DHT22;30569;51.252;9.830;2024-02-14T03:26:15;7.10;99.90
44833;DHT22;30569;51.252;9.830;2024-02-14T03:28:40;7.30;99.90
44833;DHT22;30569;51.252;9.830;2024-02-14T03:31:06;7.00;99.90
44833;DHT22;30569;51.252;9.830;2024-02-14T03:33:31;6.90;99.90
44833;DHT22;30569;51.252;9.830;2024-02-14T03:35:57;6.80;99.90
44833;DHT22;30569;51.252;9.830;2024-02-14T03:38:29;7.00;99.90
44833;DHT22;30569;51.252;9.830;2024-02-14T03:40:56;6.90;99.90
44833;DHT22;30569;51.252;9.830;2024-02-14T03:43:22;7.00;99.90
44833;DHT22;30569;51.252;9.830;2024-02-14T03:45:49;7.00;99.90
44833;DHT22;30569;51.252;9.830;2024-02-14T03:48:15;7.10;99.90
44833;DHT22;30569;51.252;9.830;2024-02-14T03:50:41;7.20;99.90
44833;DHT22;30569;51.252;9.830;2024-02-14T03:53:08;7.20;99.90
44833;DHT22;30569;51.252;9.830;2024-02-14T03:55:36;7.40;99.90
44833;DHT22;30569;51.252;9.830;2024-02-14T03:58:02;7.40;99.90
44833;DHT22;30569;51.252;9.830;2024-02-14T04:00:28;7.60;99.90
44833;DHT22;30569;51.252;9.830;2024-02-14T04:02:55;7.60;99.90
44833;DHT22;30569;51.252;9.830;2024-02-14T04:05:27;7.80;99.90
44833;DHT22;30569;51.252;9.830;2024-02-14T04:07:54;7.90;99.90
44833;DHT22;30569;51.252;9.830;2024-02-14T04:10:20;8.10;99.90
44833;DHT22;30569;51.252;9.830;2024-02-14T04:12:46;8.00;99.90
44833;DHT22;30569;51.252;9.830;2024-02-14T04:15:11;7.80;99.90
44833;DHT22;30569;51.252;9.830;2024-02-14T04:17:39;7.60;99.90
44833;DHT22;30569;51.252;9.830;2024-02-14T04:20:05;7.50;99.90
44833;DHT22;30569;51.252;9.830;2024-02-14T04:22:30;7.50;99.90
44833;DHT22;30569;51.252;9.830;2024-02-14T04:24:56;7.30;99.90
44833;DHT22;30569;51.252;9.830;2024-02-14T04:27:22;7.10;99.90
44833;DHT22;30569;51.252;9.830;2024-02-14T04:29:48;6.80;99.90
44833;DHT22;30569;51.252;9.830;2024-02-14T04:32:14;6.90;99.90
44833;DHT22;30569;51.252;9.830;2024-02-14T04:34:40;6.80;99.90
44833;DHT22;30569;51.252;9.830;2024-02-14T04:37:07;6.80;99.90
44833;DHT22;30569;51.252;9.830;2024-02-14T04:39:38;6.20;99.90
44833;DHT22;30569;51.252;9.830;2024-02-14T04:42:04;6.40;99.90
44833;DHT22;30569;51.252;9.830;2024-02-14T04:44:31;6.40;99.90
44833;DHT22;30569;51.252;9.830;2024-02-14T04:47:03;6.60;99.90
44833;DHT22;30569;51.252;9.830;2024-02-14T04:49:29;6.70;99.90
44833;DHT22;30569;51.252;9.830;2024-02-14T04:51:55;6.80;99.90
44833;DHT22;30569;51.252;9.830;2024-02-14T04:54:20;6.90;99.90
44833;DHT22;30569;51.252;9.830;2024-02-14T04:56:46;7.00;99.90
44833;DHT22;30569;51.252;9.830;2024-02-14T04:59:12;6.80;99.90
44833;DHT22;30569;51.252;9.830;2024-02-14T05:01:37;6.80;99.90
44833;DHT22;30569;51.252;9.830;2024-02-14T05:04:05;6.80;99.90
44833;DHT22;30569;51.252;9.830;2024-02-14T05:06:30;7.00;99.90
44833;DHT22;30569;51.252;9.830;2024-02-14T05:08:56;7.10;99.90
44833;DHT22;30569;51.252;9.830;2024-02-14T05:11:21;7.10;99.90
44833;DHT22;30569;51.252;9.830;2024-02-14T05:13:47;7.00;99.90
44833;DHT22;30569;51.252;9.830;2024-02-14T05:16:17;7.00;99.90
44833;DHT22;30569;51.252;9.830;2024-02-14T05:18:43;6.90;99.90
44833;DHT22;30569;51.252;9.830;2024-02-14T05:21:08;7.00;99.90
44833;DHT22;30569;51.252;9.830;2024-02-14T05:23:34;6.90;99.90
44833;DHT22;30569;51.252;9.830;2024-02-14T05:26:02;7.20;99.90
44833;DHT22;30569;51.252;9.830;2024-02-14T05:28:28;7.50;99.90
44833;DHT22;30569;51.252;9.830;2024-02-14T05:30:54;7.50;99.90
44833;DHT22;30569;51.252;9.830;2024-02-14T05:33:20;7.40;99.90
44833;DHT22;30569;51.252;9.830;2024-02-14T05:35:51;7.50;99.90
44833;DHT22;30569;51.252;9.830;2024-02-14T05:38:17;7.50;99.90
44833;DHT22;30569;51.252;9.830;2024-02-14T05:40:45;7.70;99.90
44833;DHT22;30569;51.252;9.830;2024-02-14T05:43:11;7.80;99.90
44833;DHT22;30569;51.252;9.830;2024-02-14T05:45:36;7.70;99.90
44833;DHT22;30569;51.252;9.830;2024-02-14T05:48:02;7.50;99.90
44833;DHT22;30569;51.252;9.830;2024-02-14T05:50:29;7.20;99.90
44833;DHT22;30569;51.252;9.830;2024-02-14T05:52:54;7.00;99.90
44833;DHT22;30569;51.252;9.830;2024-02-14T05:55:22;7.00;99.90
44833;DHT22;30569;51.252;9.830;2024-02-14T05:57:48;7.20;99.90
44833;DHT22;30569;51.252;9.830;2024-02-14T06:00:14;6.80;99.90
44833;DHT22;30569;51.252;9.830;2024-02-14T06:02:40;6.80;99.90
44833;DHT22;30569;51.252;9.830;2024-02-14T06:05:07;7.00;99.90
44833;DHT22;30569;51.252;9.830;2024-02-14T06:07:36;7.00;99.90
44833;DHT22;30569;51.252;9.830;2024-02-14T06:10:02;7.40;99.90
44833;DHT22;30569;51.252;9.830;2024-02-14T06:12:28;7.30;99.90
44833;DHT22;30569;51.252;9.830;2024-02-14T06:14:55;7.20;99.90
44833;DHT22;30569;51.252;9.830;2024-02-14T06:17:21;7.10;99.90
44833;DHT22;30569;51.252;9.830;2024-02-14T06:19:47;7.00;99.90
44833;DHT22;30569;51.252;9.830;2024-02-14T06:22:12;7.90;99.90
44833;DHT22;30569;51.252;9.830;2024-02-14T06:27:04;6.60;99.90
44833;DHT22;30569;51.252;9.830;2024-02-14T06:29:30;6.70;99.90
44833;DHT22;30569;51.252;9.830;2024-02-14T06:31:55;6.70;99.90
44833;DHT22;30569;51.252;9.830;2024-02-14T06:34:21;6.70;99.90
44833;DHT22;30569;51.252;9.830;2024-02-14T06:36:47;6.90;99.90
44833;DHT22;30569;51.252;9.830;2024-02-14T06:39:12;7.00;99.90
44833;DHT22;30569;51.252;9.830;2024-02-14T06:41:38;7.00;99.90
44833;DHT22;30569;51.252;9.830;2024-02-14T06:44:05;7.00;99.90
44833;DHT22;30569;51.252;9.830;2024-02-14T06:46:31;7.00;99.90
44833;DHT22;30569;51.252;9.830;2024-02-14T06:48:56;7.10;99.90
44833;DHT22;30569;51.252;9.830;2024-02-14T06:51:22;7.10;99.90
44833;DHT22;30569;51.252;9.830;2024-02-14T06:53:49;7.30;99.90
44833;DHT22;30569;51.252;9.830;2024-02-14T06:56:15;7.20;99.90
44833;DHT22;30569;51.252;9.830;2024-02-14T06:58:41;7.30;99.90
44833;DHT22;30569;51.252;9.830;2024-02-14T07:01:07;7.30;99.90
44833;DHT22;30569;51.252;9.830;2024-02-14T07:03:33;7.30;99.90
44833;DHT22;30569;51.252;9.830;2024-02-14T07:05:59;7.10;99.90
44833;DHT22;30569;51.252;9.830;2024-02-14T07:08:24;7.00;99.90
44833;DHT22;30569;51.252;9.830;2024-02-14T07:10:53;7.00;99.90
44833;DHT22;30569;51.252;9.830;2024-02-14T07:13:19;7.00;99.90
44833;DHT22;30569;51.252;9.830;2024-02-14T07:15:44;7.00;99.90
44833;DHT22;30569;51.252;9.830;2024-02-14T07:18:10;7.20;99.90
44833;DHT22;30569;51.252;9.830;2024-02-14T07:20:36;7.10;99.90
44833;DHT22;30569;51.252;9.830;2024-02-14T07:23:02;7.20;99.90
44833;DHT22;30569;51.252;9.830;2024-02-14T07:25:28;7.10;99.90
44833;DHT22;30569;51.252;9.830;2024-02-14T07:27:54;7.00;99.90
44833;DHT22;30569;51.252;9.830;2024-02-14T07:30:19;7.00;99.90
44833;DHT22;30569;51.252;9.830;2024-02-14T07:32:45;7.00;99.90
44833;DHT22;30569;51.252;9.830;2024-02-14T07:35:10;7.00;99.90
44833;DHT22;30569;51.252;9.830;2024-02-14T07:37:37;7.10;99.90
44833;DHT22;30569;51.252;9.830;2024-02-14T07:40:03;7.00;99.90
44833;DHT22;30569;51.252;9.830;2024-02-14T07:42:29;7.00;99.90
44833;DHT22;30569;51.252;9.830;2024-02-14T07:44:55;7.10;99.90
44833;DHT22;30569;51.252;9.830;2024-02-14T07:47:21;7.10;99.90
44833;DHT22;30569;51.252;9.830;2024-02-14T07:49:47;7.00;99.90
44833;DHT22;30569;51.252;9.830;2024-02-14T07:52:13;7.10;99.90
44833;DHT22;30569;51.252;9.830;2024-02-14T07:54:38;7.10;99.90
44833;DHT22;30569;51.252;9.830;2024-02-14T07:57:04;7.10;99.90
44833;DHT22;30569;51.252;9.830;2024-02-14T07:59:30;7.10;99.90
44833;DHT22;30569;51.252;9.830;2024-02-14T08:01:55;7.10;99.90
44833;DHT22;30569;51.252;9.830;2024-02-14T08:04:23;7.20;99.90
44833;DHT22;30569;51.252;9.830;2024-02-14T08:06:49;7.20;99.90
44833;DHT22;30569;51.252;9.830;2024-02-14T08:09:14;7.30;99.90
44833;DHT22;30569;51.252;9.830;2024-02-14T08:11:40;7.30;99.90
44833;DHT22;30569;51.252;9.830;2024-02-14T08:14:06;7.30;99.90
44833;DHT22;30569;51.252;9.830;2024-02-14T08:16:31;7.60;99.90
44833;DHT22;30569;51.252;9.830;2024-02-14T08:18:57;7.50;99.90
44833;DHT22;30569;51.252;9.830;2024-02-14T08:21:27;7.40;99.90
44833;DHT22;30569;51.252;9.830;2024-02-14T08:23:53;7.40;99.90
44833;DHT22;30569;51.252;9.830;2024-02-14T08:26:21;7.40;99.90
44833;DHT22;30569;51.252;9.830;2024-02-14T08:28:48;7.30;99.90
44833;DHT22;30569;51.252;9.830;2024-02-14T08:31:14;7.50;99.90
44833;DHT22;30569;51.252;9.830;2024-02-14T08:33:40;7.40;99.90
44833;DHT22;30569;51.252;9.830;2024-02-14T08:36:06;7.40;99.90
44833;DHT22;30569;51.252;9.830;2024-02-14T08:38:32;7.40;99.90
44833;DHT22;30569;51.252;9.830;2024-02-14T08:40:58;7.80;99.90
44833;DHT22;30569;51.252;9.830;2024-02-14T08:43:24;8.00;99.90
44833;DHT22;30569;51.252;9.830;2024-02-14T08:45:54;7.90;99.90
44833;DHT22;30569;51.252;9.830;2024-02-14T08:48:19;8.70;99.90
44833;DHT22;30569;51.252;9.830;2024-02-14T08:50:45;8.10;99.90
44833;DHT22;30569;51.252;9.830;2024-02-14T08:53:12;8.10;99.90
44833;DHT22;30569;51.252;9.830;2024-02-14T08:55:40;8.10;99.90
44833;DHT22;30569;51.252;9.830;2024-02-14T08:58:05;8.40;99.90
44833;DHT22;30569;51.252;9.830;2024-02-14T09:00:31;8.60;99.90
44833;DHT22;30569;51.252;9.830;2024-02-14T09:02:57;8.70;99.90
44833;DHT22;30569;51.252;9.830;2024-02-14T09:05:25;8.60;99.90
44833;DHT22;30569;51.252;9.830;2024-02-14T09:07:51;9.10;99.90
44833;DHT22;30569;51.252;9.830;2024-02-14T09:10:17;9.00;99.90
44833;DHT22;30569;51.252;9.830;2024-02-14T09:12:42;9.10;99.90
44833;DHT22;30569;51.252;9.830;2024-02-14T09:15:09;9.00;99.90
44833;DHT22;30569;51.252;9.830;2024-02-14T09:17:34;9.10;99.90
44833;DHT22;30569;51.252;9.830;2024-02-14T09:20:01;9.30;99.90
44833;DHT22;30569;51.252;9.830;2024-02-14T09:22:26;9.30;99.90
44833;DHT22;30569;51.252;9.830;2024-02-14T09:24:52;9.40;99.90
44833;DHT22;30569;51.252;9.830;2024-02-14T09:27:18;9.60;99.90
44833;DHT22;30569;51.252;9.830;2024-02-14T09:29:44;9.30;99.90
44833;DHT22;30569;51.252;9.830;2024-02-14T09:32:09;9.30;99.90
44833;DHT22;30569;51.252;9.830;2024-02-14T09:34:35;9.30;99.90
44833;DHT22;30569;51.252;9.830;2024-02-14T09:37:00;9.30;99.90
44833;DHT22;30569;51.252;9.830;2024-02-14T09:39:26;9.10;99.90
44833;DHT22;30569;51.252;9.830;2024-02-14T09:41:54;9.00;99.90
44833;DHT22;30569;51.252;9.830;2024-02-14T09:44:27;8.90;99.90
44833;DHT22;30569;51.252;9.830;2024-02-14T09:46:54;9.30;99.90
44833;DHT22;30569;51.252;9.830;2024-02-14T09:49:21;9.30;99.90
44833;DHT22;30569;51.252;9.830;2024-02-14T09:51:48;8.90;99.90
44833;DHT22;30569;51.252;9.830;2024-02-14T09:54:17;9.10;99.90
44833;DHT22;30569;51.252;9.830;2024-02-14T09:56:51;8.90;99.90
44833;DHT22;30569;51.252;9.830;2024-02-14T09:59:19;8.80;99.90
44833;DHT22;30569;51.252;9.830;2024-02-14T10:01:46;8.90;99.90
44833;DHT22;30569;51.252;9.830;2024-02-14T10:04:13;9.10;99.90
44833;DHT22;30569;51.252;9.830;2024-02-14T10:06:39;9.00;99.90
44833;DHT22;30569;51.252;9.830;2024-02-14T10:09:04;8.80;99.90
44833;DHT22;30569;51.252;9.830;2024-02-14T10:11:34;8.90;99.90
44833;DHT22;30569;51.252;9.830;2024-02-14T10:14:00;9.20;99.90
44833;DHT22;30569;51.252;9.830;2024-02-14T10:16:29;9.10;99.90
44833;DHT22;30569;51.252;9.830;2024-02-14T10:18:55;9.00;99.90
44833;DHT22;30569;51.252;9.830;2024-02-14T10:21:21;8.90;99.90
44833;DHT22;30569;51.252;9.830;2024-02-14T10:23:50;9.10;99.90
44833;DHT22;30569;51.252;9.830;2024-02-14T10:26:17;9.20;99.90
44833;DHT22;30569;51.252;9.830;2024-02-14T10:28:43;9.10;99.90
44833;DHT22;30569;51.252;9.830;2024-02-14T10:31:10;8.90;99.90
44833;DHT22;30569;51.252;9.830;2024-02-14T10:33:36;8.80;99.90
44833;DHT22;30569;51.252;9.830;2024-02-14T10:36:02;8.90;99.90
44833;DHT22;30569;51.252;9.830;2024-02-14T10:38:32;9.30;99.90
44833;DHT22;30569;51.252;9.830;2024-02-14T10:41:02;9.20;99.90
44833;DHT22;30569;51.252;9.830;2024-02-14T10:43:28;9.30;99.90
44833;DHT22;30569;51.252;9.830;2024-02-14T10:45:54;9.20;99.90
44833;DHT22;30569;51.252;9.830;2024-02-14T10:48:22;9.00;99.90
44833;DHT22;30569;51.252;9.830;2024-02-14T10:50:54;9.00;99.90
44833;DHT22;30569;51.252;9.830;2024-02-14T10:53:23;9.00;99.90
44833;DHT22;30569;51.252;9.830;2024-02-14T10:55:51;9.10;99.90
44833;DHT22;30569;51.252;9.830;2024-02-14T10:58:21;9.10;99.90
44833;DHT22;30569;51.252;9.830;2024-02-14T11:00:49;9.00;99.90
44833;DHT22;30569;51.252;9.830;2024-02-14T11:03:15;9.00;99.90
44833;DHT22;30569;51.252;9.830;2024-02-14T11:05:46;9.00;99.90
44833;DHT22;30569;51.252;9.830;2024-02-14T11:08:21;9.00;99.90
44833;DHT22;30569;51.252;9.830;2024-02-14T11:10:59;9.40;99.90
44833;DHT22;30569;51.252;9.830;2024-02-14T11:13:26;9.50;99.90
44833;DHT22;30569;51.252;9.830;2024-02-14T11:15:53;9.80;99.90
44833;DHT22;30569;51.252;9.830;2024-02-14T11:18:30;9.80;99.90
44833;DHT22;30569;51.252;9.830;2024-02-14T11:20:56;9.80;99.90
44833;DHT22;30569;51.252;9.830;2024-02-14T11:23:23;9.70;99.90
44833;DHT22;30569;51.252;9.830;2024-02-14T11:25:49;9.40;99.90
44833;DHT22;30569;51.252;9.830;2024-02-14T11:28:15;9.40;99.90
44833;DHT22;30569;51.252;9.830;2024-02-14T11:30:42;9.50;99.90
44833;DHT22;30569;51.252;9.830;2024-02-14T11:33:18;9.60;99.90
44833;DHT22;30569;51.252;9.830;2024-02-14T11:35:47;9.80;99.90
44833;DHT22;30569;51.252;9.830;2024-02-14T11:38:15;9.60;99.90
44833;DHT22;30569;51.252;9.830;2024-02-14T11:40:40;9.60;99.90
44833;DHT22;30569;51.252;9.830;2024-02-14T11:43:17;9.40;99.90
44833;DHT22;30569;51.252;9.830;2024-02-14T11:45:44;9.50;99.90
44833;DHT22;30569;51.252;9.830;2024-02-14T11:48:14;9.60;99.90
44833;DHT22;30569;51.252;9.830;2024-02-14T11:50:40;9.30;99.90
44833;DHT22;30569;51.252;9.830;2024-02-14T11:53:06;9.40;99.90
44833;DHT22;30569;51.252;9.830;2024-02-14T11:55:39;9.80;99.90
44833;DHT22;30569;51.252;9.830;2024-02-14T11:58:12;9.80;99.90
44833;DHT22;30569;51.252;9.830;2024-02-14T12:00:39;9.80;99.90
44833;DHT22;30569;51.252;9.830;2024-02-14T12:03:22;9.70;99.90
44833;DHT22;30569;51.252;9.830;2024-02-14T12:05:49;9.80;99.90
44833;DHT22;30569;51.252;9.830;2024-02-14T12:08:16;9.60;99.90
44833;DHT22;30569;51.252;9.830;2024-02-14T12:10:44;9.70;99.90
44833;DHT22;30569;51.252;9.830;2024-02-14T12:13:14;9.70;99.90
44833;DHT22;30569;51.252;9.830;2024-02-14T12:15:45;9.60;99.90
44833;DHT22;30569;51.252;9.830;2024-02-14T12:18:12;9.70;99.90
44833;DHT22;30569;51.252;9.830;2024-02-14T12:20:39;9.90;99.90
44833;DHT22;30569;51.252;9.830;2024-02-14T12:23:05;9.70;99.90
44833;DHT22;30569;51.252;9.830;2024-02-14T12:25:31;9.80;99.90
44833;DHT22;30569;51.252;9.830;2024-02-14T12:27:58;10.00;99.90
44833;DHT22;30569;51.252;9.830;2024-02-14T12:30:46;9.80;99.90
44833;DHT22;30569;51.252;9.830;2024-02-14T12:33:14;9.70;99.90
44833;DHT22;30569;51.252;9.830;2024-02-14T12:35:45;9.60;99.90
44833;DHT22;30569;51.252;9.830;2024-02-14T12:38:12;9.60;99.90
44833;DHT22;30569;51.252;9.830;2024-02-14T12:40:39;9.80;99.90
44833;DHT22;30569;51.252;9.830;2024-02-14T12:43:09;9.80;99.90
44833;DHT22;30569;51.252;9.830;2024-02-14T12:45:34;10.00;99.90
44833;DHT22;30569;51.252;9.830;2024-02-14T12:48:00;10.30;99.90
44833;DHT22;30569;51.252;9.830;2024-02-14T12:50:26;10.20;99.90
44833;DHT22;30569;51.252;9.830;2024-02-14T12:52:52;10.10;99.90
44833;DHT22;30569;51.252;9.830;2024-02-14T12:55:18;9.70;99.90
44833;DHT22;30569;51.252;9.830;2024-02-14T12:57:44;9.90;99.90
44833;DHT22;30569;51.252;9.830;2024-02-14T13:00:11;10.20;99.90
44833;DHT22;30569;51.252;9.830;2024-02-14T13:02:36;10.20;99.90
44833;DHT22;30569;51.252;9.830;2024-02-14T13:05:05;10.20;99.90
44833;DHT22;30569;51.252;9.830;2024-02-14T13:07:33;10.40;99.90
44833;DHT22;30569;51.252;9.830;2024-02-14T13:09:59;10.20;99.90
44833;DHT22;30569;51.252;9.830;2024-02-14T13:12:24;10.30;99.90
44833;DHT22;30569;51.252;9.830;2024-02-14T13:14:50;10.30;99.90
44833;DHT22;30569;51.252;9.830;2024-02-14T13:17:15;10.20;99.90
44833;DHT22;30569;51.252;9.830;2024-02-14T13:19:41;10.30;99.90
44833;DHT22;30569;51.252;9.830;2024-02-14T13:22:08;10.40;99.90
44833;DHT22;30569;51.252;9.830;2024-02-14T13:24:34;10.10;99.90
44833;DHT22;30569;51.252;9.830;2024-02-14T13:27:00;10.00;99.90
44833;DHT22;30569;51.252;9.830;2024-02-14T13:29:25;10.20;99.90
44833;DHT22;30569;51.252;9.830;2024-02-14T13:31:51;10.40;99.90
44833;DHT22;30569;51.252;9.830;2024-02-14T13:34:17;10.30;99.90
44833;DHT22;30569;51.252;9.830;2024-02-14T13:36:45;10.00;99.90
44833;DHT22;30569;51.252;9.830;2024-02-14T13:39:11;10.30;99.90
44833;DHT22;30569;51.252;9.830;2024-02-14T13:41:38;10.30;99.90
44833;DHT22;30569;51.252;9.830;2024-02-14T13:44:06;10.50;99.90
44833;DHT22;30569;51.252;9.830;2024-02-14T13:46:34;10.40;99.90
44833;DHT22;30569;51.252;9.830;2024-02-14T13:48:59;10.20;99.90
44833;DHT22;30569;51.252;9.830;2024-02-14T13:51:25;10.20;99.90
44833;DHT22;30569;51.252;9.830;2024-02-14T13:53:52;10.40;99.90
44833;DHT22;30569;51.252;9.830;2024-02-14T13:56:18;10.20;99.90
44833;DHT22;30569;51.252;9.830;2024-02-14T13:58:47;10.10;99.90
44833;DHT22;30569;51.252;9.830;2024-02-14T14:01:14;10.10;99.90
44833;DHT22;30569;51.252;9.830;2024-02-14T14:03:40;10.20;99.90
44833;DHT22;30569;51.252;9.830;2024-02-14T14:06:07;10.20;99.90
44833;DHT22;30569;51.252;9.830;2024-02-14T14:08:36;10.40;99.90
44833;DHT22;30569;51.252;9.830;2024-02-14T14:11:05;10.50;99.90
44833;DHT22;30569;51.252;9.830;2024-02-14T14:13:31;10.00;99.90
44833;DHT22;30569;51.252;9.830;2024-02-14T14:15:59;10.10;99.90
44833;DHT22;30569;51.252;9.830;2024-02-14T14:18:24;9.70;99.90
44833;DHT22;30569;51.252;9.830;2024-02-14T14:20:50;10.00;99.90
44833;DHT22;30569;51.252;9.830;2024-02-14T14:23:15;10.30;99.90
44833;DHT22;30569;51.252;9.830;2024-02-14T14:25:41;10.20;99.90
44833;DHT22;30569;51.252;9.830;2024-02-14T14:28:07;10.50;99.90
44833;DHT22;30569;51.252;9.830;2024-02-14T14:30:35;10.80;99.90
44833;DHT22;30569;51.252;9.830;2024-02-14T14:33:00;10.70;99.90
44833;DHT22;30569;51.252;9.830;2024-02-14T14:35:26;10.60;99.90
44833;DHT22;30569;51.252;9.830;2024-02-14T14:37:52;10.60;99.90
44833;DHT22;30569;51.252;9.830;2024-02-14T14:40:17;10.70;99.90
44833;DHT22;30569;51.252;9.830;2024-02-14T14:42:43;10.80;99.90
44833;DHT22;30569;51.252;9.830;2024-02-14T14:45:08;10.70;99.90
44833;DHT22;30569;51.252;9.830;2024-02-14T14:47:34;10.60;99.90
44833;DHT22;30569;51.252;9.830;2024-02-14T14:50:01;11.30;99.90
44833;DHT22;30569;51.252;9.830;2024-02-14T14:52:26;11.30;99.90
44833;DHT22;30569;51.252;9.830;2024-02-14T14:54:52;11.10;99.90
44833;DHT22;30569;51.252;9.830;2024-02-14T14:57:17;11.00;99.90
44833;DHT22;30569;51.252;9.830;2024-02-14T14:59:43;11.10;99.90
44833;DHT22;30569;51.252;9.830;2024-02-14T15:02:09;11.10;99.90
44833;DHT22;30569;51.252;9.830;2024-02-14T15:04:35;10.90;99.90
44833;DHT22;30569;51.252;9.830;2024-02-14T15:07:02;10.80;99.90
44833;DHT22;30569;51.252;9.830;2024-02-14T15:09:27;10.60;99.90
44833;DHT22;30569;51.252;9.830;2024-02-14T15:11:53;10.50;99.90
44833;DHT22;30569;51.252;9.830;2024-02-14T15:14:19;10.40;99.90
44833;DHT22;30569;51.252;9.830;2024-02-14T15:16:45;10.20;99.90
44833;DHT22;30569;51.252;9.830;2024-02-14T15:19:10;10.40;99.90
44833;DHT22;30569;51.252;9.830;2024-02-14T15:21:36;10.40;99.90
44833;DHT22;30569;51.252;9.830;2024-02-14T15:24:02;10.20;99.90
44833;DHT22;30569;51.252;9.830;2024-02-14T15:26:29;10.10;99.90
44833;DHT22;30569;51.252;9.830;2024-02-14T15:28:55;10.10;99.90
44833;DHT22;30569;51.252;9.830;2024-02-14T15:31:41;10.30;99.90
44833;DHT22;30569;51.252;9.830;2024-02-14T15:34:25;10.20;99.90
44833;DHT22;30569;51.252;9.830;2024-02-14T15:36:50;10.20;99.90
44833;DHT22;30569;51.252;9.830;2024-02-14T15:39:16;10.40;99.90
44833;DHT22;30569;51.252;9.830;2024-02-14T15:41:41;10.30;99.90